Time;durP1;ratioP1;P1;durP2;ratioP2;P2;SDS_P1;SDS_P2;PMS_P1;PMS_P2;Temp;Humidity;BMP_temperature;BMP_pressure;BME280_temperature;BME280_humidity;BME280_pressure;Samples;Min_cycle;Max_cycle;Signal;HPM_P1;HPM_P2
2023/01/09 00:00:55;;;;;;;1999.90;999.90;;;8.30;99.90;;;;;;5045242;28;20448;-69
2023/01/09 00:03:22;;;;;;;1999.90;999.90;;;8.30;99.90;;;;;;5048255;28;20483;-70
2023/01/09 00:05:49;;;;;;;1999.90;999.90;;;8.30;99.90;;;;;;5048205;28;20489;-69
2023/01/09 00:08:16;;;;;;;1999.90;999.90;;;8.30;99.90;;;;;;5048018;28;20484;-69
2023/01/09 00:10:42;;;;;;;1999.90;999.90;;;8.30;99.90;;;;;;5047462;28;20861;-69
2023/01/09 00:13:11;;;;;;;1999.90;999.90;;;8.20;99.90;;;;;;5048203;28;20977;-69
2023/01/09 00:15:39;;;;;;;1999.90;999.90;;;8.30;99.90;;;;;;5037746;28;20438;-69
2023/01/09 00:18:07;;;;;;;1999.90;999.90;;;8.30;99.90;;;;;;5028198;28;20468;-69
2023/01/09 00:20:34;;;;;;;1999.90;999.90;;;8.30;99.90;;;;;;5027160;28;20971;-69
2023/01/09 00:23:00;;;;;;;1999.90;999.90;;;8.30;99.90;;;;;;5028485;28;20441;-69
2023/01/09 00:25:27;;;;;;;1999.90;999.90;;;8.30;99.90;;;;;;5033898;28;20479;-69
2023/01/09 00:27:54;;;;;;;1999.90;999.90;;;8.30;99.90;;;;;;5040050;28;20474;-70
2023/01/09 00:30:21;;;;;;;1999.90;999.90;;;8.30;99.90;;;;;;5046695;28;20450;-69
2023/01/09 00:32:48;;;;;;;1999.90;999.90;;;8.30;99.90;;;;;;5033874;28;20449;-70
2023/01/09 00:35:18;;;;;;;1999.90;999.90;;;8.30;99.90;;;;;;5028574;28;20445;-70
2023/01/09 00:37:45;;;;;;;1999.90;999.90;;;8.30;99.90;;;;;;5027691;28;20465;-69
2023/01/09 00:40:14;;;;;;;1999.90;999.90;;;8.30;99.90;;;;;;5027639;28;20523;-69
2023/01/09 00:42:43;;;;;;;1999.90;999.90;;;8.30;99.90;;;;;;5026643;28;20898;-69
2023/01/09 00:45:14;;;;;;;1999.90;999.90;;;8.30;99.90;;;;;;5027918;28;20440;-69
2023/01/09 00:47:46;;;;;;;1999.90;999.90;;;8.20;99.90;;;;;;5028107;28;20453;-69
2023/01/09 00:50:18;;;;;;;1999.90;999.90;;;8.20;99.90;;;;;;5045230;28;20452;-69
2023/01/09 00:52:46;;;;;;;1999.90;999.90;;;8.20;99.90;;;;;;5010654;28;20459;-69
2023/01/09 00:55:14;;;;;;;1999.90;999.90;;;8.20;99.90;;;;;;5037808;28;20475;-69
2023/01/09 00:57:41;;;;;;;1999.90;999.90;;;8.20;99.90;;;;;;5035773;28;20838;-69
2023/01/09 01:00:10;;;;;;;1999.90;999.90;;;8.20;99.90;;;;;;5027437;28;20458;-69
2023/01/09 01:02:37;;;;;;;1999.90;999.90;;;8.20;99.90;;;;;;5026479;28;20449;-69
2023/01/09 01:07:51;;;;;;;1999.90;999.90;;;8.20;99.90;;;;;;5026745;28;21170;-69
2023/01/09 01:10:20;;;;;;;1999.90;999.90;;;8.20;99.90;;;;;;5027939;28;20531;-70
2023/01/09 01:12:48;;;;;;;1999.90;999.90;;;8.20;99.90;;;;;;5027368;28;20449;-70
2023/01/09 01:15:15;;;;;;;1999.90;999.90;;;8.20;99.90;;;;;;5029010;28;20445;-67
2023/01/09 01:17:42;;;;;;;1999.90;999.90;;;8.20;99.90;;;;;;5029624;28;20460;-69
2023/01/09 01:20:12;;;;;;;1999.90;999.90;;;8.20;99.90;;;;;;5028478;28;20443;-69
2023/01/09 01:22:41;;;;;;;1999.90;999.90;;;8.20;99.90;;;;;;5030017;28;20455;-70
2023/01/09 01:25:09;;;;;;;1999.90;999.90;;;8.20;99.90;;;;;;5029723;28;20444;-70
2023/01/09 01:27:36;;;;;;;1999.90;999.90;;;8.20;99.90;;;;;;5029276;28;20555;-70
2023/01/09 01:30:04;;;;;;;1999.90;999.90;;;8.10;99.90;;;;;;5028757;28;20448;-70
2023/01/09 01:32:30;;;;;;;1999.90;999.90;;;8.20;99.90;;;;;;5028375;28;20448;-70
2023/01/09 01:34:57;;;;;;;1999.90;999.90;;;8.20;99.90;;;;;;5029468;28;20433;-69
2023/01/09 01:37:24;;;;;;;1999.90;999.90;;;8.20;99.90;;;;;;5029489;28;20471;-69
2023/01/09 01:39:51;;;;;;;1999.90;999.90;;;8.20;99.90;;;;;;5029667;28;20648;-69
2023/01/09 01:42:20;;;;;;;1999.90;999.90;;;8.20;99.90;;;;;;5028678;28;20969;-69
2023/01/09 01:45:03;;;;;;;1999.90;999.90;;;8.30;99.90;;;;;;5028879;28;20452;-70
2023/01/09 01:47:36;;;;;;;1999.90;999.90;;;8.30;99.90;;;;;;5029104;28;20492;-70
2023/01/09 01:50:07;;;;;;;1999.90;999.90;;;8.30;99.90;;;;;;5028197;28;20819;-70
2023/01/09 01:52:37;;;;;;;1999.90;999.90;;;8.30;99.90;;;;;;5037895;28;20452;-70
2023/01/09 01:55:07;;;;;;;1999.90;999.90;;;8.30;99.90;;;;;;5049087;28;20440;-70
2023/01/09 01:57:37;;;;;;;1999.90;999.90;;;8.30;99.90;;;;;;5030503;28;20445;-69
2023/01/09 02:00:06;;;;;;;1999.90;999.90;;;8.20;99.90;;;;;;5029056;28;20976;-71
2023/01/09 02:02:33;;;;;;;1999.90;999.90;;;8.20;99.90;;;;;;5047817;28;20545;-70
2023/01/09 02:05:01;;;;;;;1999.90;999.90;;;8.30;99.90;;;;;;5048715;28;20454;-69
2023/01/09 02:07:29;;;;;;;1999.90;999.90;;;8.20;99.90;;;;;;5048674;28;20480;-70
2023/01/09 02:09:56;;;;;;;1999.90;999.90;;;8.30;99.90;;;;;;5047178;28;20475;-69
2023/01/09 02:12:25;;;;;;;1999.90;999.90;;;8.20;99.90;;;;;;5047945;28;20900;-69
2023/01/09 02:14:58;;;;;;;1999.90;999.90;;;8.20;99.90;;;;;;5044411;28;20934;-69
2023/01/09 02:17:59;;;;;;;1999.90;999.90;;;8.30;99.90;;;;;;5028798;28;20848;-69
2023/01/09 02:20:42;;;;;;;1999.90;999.90;;;8.30;99.90;;;;;;5027292;28;20452;-69
2023/01/09 02:23:33;;;;;;;1999.90;999.90;;;8.30;99.90;;;;;;5028350;28;20445;-69
2023/01/09 02:26:23;;;;;;;1999.90;999.90;;;8.30;99.90;;;;;;5022252;28;21006;-70
2023/01/09 02:29:21;;;;;;;1999.90;999.90;;;8.30;99.90;;;;;;5027822;28;20472;-69
2023/01/09 02:31:55;;;;;;;1999.90;999.90;;;8.30;99.90;;;;;;5029399;28;20462;-69
2023/01/09 02:34:28;;;;;;;1999.90;999.90;;;8.20;99.90;;;;;;5027730;28;20456;-70
2023/01/09 02:37:02;;;;;;;1999.90;999.90;;;8.30;99.90;;;;;;5028449;28;20892;-70
2023/01/09 02:39:37;;;;;;;1999.90;999.90;;;8.20;99.90;;;;;;5026802;28;21045;-70
2023/01/09 02:42:10;;;;;;;1999.90;999.90;;;8.20;99.90;;;;;;5028121;28;20818;-70
2023/01/09 02:44:36;;;;;;;1999.90;999.90;;;8.20;99.90;;;;;;5027668;28;20576;-70
2023/01/09 02:47:07;;;;;;;1999.90;999.90;;;8.20;99.90;;;;;;5028374;28;20492;-70
2023/01/09 02:49:37;;;;;;;1999.90;999.90;;;8.30;99.90;;;;;;5028470;28;20477;-69
2023/01/09 02:52:31;;;;;;;1999.90;999.90;;;8.30;99.90;;;;;;5027625;28;20445;-69
2023/01/09 02:55:07;;;;;;;1999.90;999.90;;;8.30;99.90;;;;;;5028123;28;20449;-69
2023/01/09 02:57:50;;;;;;;1999.90;999.90;;;8.30;99.90;;;;;;5027273;28;20437;-69
2023/01/09 03:00:31;;;;;;;1999.90;999.90;;;8.30;99.90;;;;;;5026925;28;20870;-70
2023/01/09 03:03:07;;;;;;;1999.90;999.90;;;8.20;99.90;;;;;;5027497;28;20457;-70
2023/01/09 03:05:40;;;;;;;1999.90;999.90;;;8.20;99.90;;;;;;5029623;28;20456;-70
2023/01/09 03:08:12;;;;;;;1999.90;999.90;;;8.20;99.90;;;;;;5047092;28;20487;-70
2023/01/09 03:10:42;;;;;;;1999.90;999.90;;;8.20;99.90;;;;;;5046816;28;20463;-69
2023/01/09 03:13:13;;;;;;;1999.90;999.90;;;8.20;99.90;;;;;;5047425;28;20461;-69
2023/01/09 03:15:43;;;;;;;1999.90;999.90;;;8.20;99.90;;;;;;5047146;28;20440;-70
2023/01/09 03:18:14;;;;;;;1999.90;999.90;;;8.20;99.90;;;;;;5047358;28;20866;-69
2023/01/09 03:20:42;;;;;;;1999.90;999.90;;;8.20;99.90;;;;;;5046917;28;20448;-70
2023/01/09 03:23:09;;;;;;;1999.90;999.90;;;8.20;99.90;;;;;;5036374;28;21227;-70
2023/01/09 03:25:35;;;;;;;1999.90;999.90;;;8.20;99.90;;;;;;5027519;28;20449;-69
2023/01/09 03:28:04;;;;;;;1999.90;999.90;;;8.20;99.90;;;;;;5027129;28;21064;-69
2023/01/09 03:30:33;;;;;;;1999.90;999.90;;;8.20;99.90;;;;;;5026672;28;20440;-69
2023/01/09 03:33:00;;;;;;;1999.90;999.90;;;8.20;99.90;;;;;;5026742;28;20448;-69
2023/01/09 03:35:28;;;;;;;1999.90;999.90;;;8.20;99.90;;;;;;5039031;28;20455;-69
2023/01/09 03:37:55;;;;;;;1999.90;999.90;;;8.20;99.90;;;;;;5046669;28;20471;-69
2023/01/09 03:40:22;;;;;;;1999.90;999.90;;;8.20;99.90;;;;;;5045770;28;20471;-69
2023/01/09 03:42:49;;;;;;;1999.90;999.90;;;8.20;99.90;;;;;;5046945;28;20448;-69
2023/01/09 03:45:16;;;;;;;1999.90;999.90;;;8.20;99.90;;;;;;5046492;28;20447;-69
2023/01/09 03:47:43;;;;;;;1999.90;999.90;;;8.20;99.90;;;;;;5046571;28;20476;-69
2023/01/09 03:50:10;;;;;;;1999.90;999.90;;;8.20;99.90;;;;;;5045955;28;20451;-69
2023/01/09 03:52:39;;;;;;;1999.90;999.90;;;8.20;99.90;;;;;;5046252;28;20451;-69
2023/01/09 03:55:06;;;;;;;1999.90;999.90;;;8.20;99.90;;;;;;5046826;28;20443;-69
2023/01/09 03:57:33;;;;;;;1999.90;999.90;;;8.20;99.90;;;;;;5044820;28;20448;-71
2023/01/09 03:59:59;;;;;;;1999.90;999.90;;;8.20;99.90;;;;;;5044769;28;20458;-69
2023/01/09 04:02:26;;;;;;;1999.90;999.90;;;8.20;99.90;;;;;;5031097;28;20459;-69
2023/01/09 04:04:53;;;;;;;1999.90;999.90;;;8.10;99.90;;;;;;5046574;28;20459;-69
2023/01/09 04:07:20;;;;;;;1999.90;999.90;;;8.00;99.90;;;;;;5047004;28;20475;-68
2023/01/09 04:09:48;;;;;;;1999.90;999.90;;;8.00;99.90;;;;;;5045515;28;20506;-68
2023/01/09 04:12:15;;;;;;;1999.90;999.90;;;7.90;99.90;;;;;;5046042;28;20458;-68
2023/01/09 04:14:41;;;;;;;1999.90;999.90;;;7.80;99.90;;;;;;5043696;28;20467;-68
2023/01/09 04:17:08;;;;;;;1999.90;999.90;;;7.70;99.90;;;;;;5027109;28;20452;-69
2023/01/09 04:19:35;;;;;;;1999.90;999.90;;;7.50;99.90;;;;;;5025715;28;20849;-69
2023/01/09 04:22:02;;;;;;;1999.90;999.90;;;7.40;99.90;;;;;;5026492;28;21000;-68
2023/01/09 04:24:30;;;;;;;1999.90;999.90;;;7.30;99.90;;;;;;5044204;28;20450;-69
2023/01/09 04:26:59;;;;;;;1999.90;999.90;;;7.30;99.90;;;;;;5046170;28;20483;-69
2023/01/09 04:29:26;;;;;;;1999.90;999.90;;;7.20;99.90;;;;;;5045653;28;20476;-69
2023/01/09 04:31:53;;;;;;;1999.90;999.90;;;7.10;99.90;;;;;;5045399;28;20487;-69
2023/01/09 04:34:24;;;;;;;1999.90;999.90;;;7.00;99.90;;;;;;5046391;28;20450;-69
2023/01/09 04:36:51;;;;;;;1999.90;999.90;;;7.00;99.90;;;;;;5046649;28;20448;-69
2023/01/09 04:39:18;;;;;;;1999.90;999.90;;;7.00;99.90;;;;;;5045750;28;20509;-69
2023/01/09 04:41:51;;;;;;;1999.90;999.90;;;7.00;99.90;;;;;;5046590;28;20444;-69
2023/01/09 04:44:25;;;;;;;1999.90;999.90;;;7.00;99.90;;;;;;5045872;28;21138;-69
2023/01/09 04:46:52;;;;;;;1999.90;999.90;;;7.00;99.90;;;;;;5046231;28;20486;-69
2023/01/09 04:49:19;;;;;;;1999.90;999.90;;;7.00;99.90;;;;;;5047760;28;20909;-70
2023/01/09 04:51:46;;;;;;;1999.90;999.90;;;7.00;99.90;;;;;;5049585;28;20443;-70
2023/01/09 04:54:13;;;;;;;1999.90;999.90;;;7.00;99.90;;;;;;5049652;28;20444;-70
2023/01/09 04:56:40;;;;;;;1999.90;999.90;;;6.90;99.90;;;;;;5049617;28;20448;-70
2023/01/09 04:59:07;;;;;;;1999.90;999.90;;;6.90;99.90;;;;;;5048691;28;20464;-70
2023/01/09 05:01:35;;;;;;;1999.90;999.90;;;6.90;99.90;;;;;;5049608;28;20443;-70
2023/01/09 05:04:02;;;;;;;1999.90;999.90;;;6.90;99.90;;;;;;5049417;28;20447;-70
2023/01/09 05:06:29;;;;;;;1999.90;999.90;;;6.90;99.90;;;;;;5044839;28;20483;-69
2023/01/09 05:08:56;;;;;;;1999.90;999.90;;;6.90;99.90;;;;;;5034540;28;20834;-69
2023/01/09 05:11:24;;;;;;;1999.90;999.90;;;6.90;99.90;;;;;;5049269;28;20505;-69
2023/01/09 05:13:51;;;;;;;1999.90;999.90;;;6.90;99.90;;;;;;5049227;28;20451;-70
2023/01/09 05:16:17;;;;;;;1999.90;999.90;;;7.00;99.90;;;;;;5049724;28;20976;-70
2023/01/09 05:18:46;;;;;;;1999.90;999.90;;;6.90;99.90;;;;;;5048688;28;20455;-70
2023/01/09 05:21:13;;;;;;;1999.90;999.90;;;7.00;99.90;;;;;;5048764;28;20839;-69
2023/01/09 05:23:40;;;;;;;1999.90;999.90;;;7.00;99.90;;;;;;5047340;28;20452;-70
2023/01/09 05:26:06;;;;;;;1999.90;999.90;;;7.10;99.90;;;;;;5048965;28;20884;-70
2023/01/09 05:28:33;;;;;;;1999.90;999.90;;;7.10;99.90;;;;;;5048665;28;20492;-70
2023/01/09 05:31:00;;;;;;;1999.90;999.90;;;7.10;99.90;;;;;;5049335;28;21085;-69
2023/01/09 05:33:27;;;;;;;1999.90;999.90;;;7.10;99.90;;;;;;5048935;28;20456;-69
2023/01/09 05:35:55;;;;;;;1999.90;999.90;;;7.10;99.90;;;;;;5049404;28;20439;-71
2023/01/09 05:38:22;;;;;;;1999.90;999.90;;;7.10;99.90;;;;;;5048465;28;20906;-70
2023/01/09 05:40:49;;;;;;;1999.90;999.90;;;7.10;99.90;;;;;;5047205;28;20454;-70
2023/01/09 05:43:15;;;;;;;1999.90;999.90;;;7.00;99.90;;;;;;5048537;28;20765;-70
2023/01/09 05:45:43;;;;;;;1999.90;999.90;;;7.00;99.90;;;;;;5048900;28;20458;-69
2023/01/09 05:48:10;;;;;;;1999.90;999.90;;;6.90;99.90;;;;;;5048555;28;20510;-70
2023/01/09 05:50:36;;;;;;;1999.90;999.90;;;6.80;99.90;;;;;;5048450;28;21271;-70
2023/01/09 05:53:05;;;;;;;1999.90;999.90;;;6.80;99.90;;;;;;5048751;28;20448;-69
2023/01/09 05:55:32;;;;;;;1999.90;999.90;;;6.80;99.90;;;;;;5048841;28;20467;-69
2023/01/09 05:57:59;;;;;;;1999.90;999.90;;;6.80;99.90;;;;;;5032986;28;21018;-69
2023/01/09 06:00:26;;;;;;;1999.90;999.90;;;6.80;99.90;;;;;;5032199;28;20535;-68
2023/01/09 06:02:52;;;;;;;1999.90;999.90;;;6.70;99.90;;;;;;5048171;28;20444;-69
2023/01/09 06:05:19;;;;;;;1999.90;999.90;;;6.60;99.90;;;;;;5048634;28;20452;-69
2023/01/09 06:07:46;;;;;;;1999.90;999.90;;;6.60;99.90;;;;;;5048094;28;20559;-69
2023/01/09 06:10:15;;;;;;;1999.90;999.90;;;6.50;99.90;;;;;;5047647;28;20463;-68
2023/01/09 06:12:46;;;;;;;1999.90;999.90;;;6.50;99.90;;;;;;5047358;28;20452;-70
2023/01/09 06:15:14;;;;;;;1999.90;999.90;;;6.50;99.90;;;;;;5047377;28;20460;-70
2023/01/09 06:17:41;;;;;;;1999.90;999.90;;;6.40;99.90;;;;;;5048308;28;20446;-70
2023/01/09 06:20:09;;;;;;;1999.90;999.90;;;6.30;99.90;;;;;;5046797;28;20821;-71
2023/01/09 06:22:36;;;;;;;1999.90;999.90;;;6.30;99.90;;;;;;5046588;28;20452;-70
2023/01/09 06:25:03;;;;;;;1999.90;999.90;;;6.30;99.90;;;;;;5048285;28;20456;-73
2023/01/09 06:27:31;;;;;;;1999.90;999.90;;;6.10;99.90;;;;;;5046174;28;20491;-69
2023/01/09 06:29:58;;;;;;;1999.90;999.90;;;6.10;99.90;;;;;;5047561;28;20456;-69
2023/01/09 06:32:25;;;;;;;1999.90;999.90;;;6.00;99.90;;;;;;5033821;28;20453;-69
2023/01/09 06:34:51;;;;;;;1999.90;999.90;;;6.00;99.90;;;;;;5022014;28;20942;-70
2023/01/09 06:37:18;;;;;;;1999.90;999.90;;;5.90;99.90;;;;;;5027672;28;20448;-69
2023/01/09 06:39:45;;;;;;;1999.90;999.90;;;5.80;99.90;;;;;;5026908;28;20471;-69
2023/01/09 06:42:12;;;;;;;1999.90;999.90;;;5.70;99.90;;;;;;5026800;28;20444;-70
2023/01/09 06:44:40;;;;;;;1999.90;999.90;;;5.60;99.90;;;;;;5027198;28;20451;-70
2023/01/09 06:47:07;;;;;;;1999.90;999.90;;;5.50;99.90;;;;;;5027920;28;20548;-69
2023/01/09 06:49:34;;;;;;;1999.90;999.90;;;5.50;99.90;;;;;;5026452;28;20473;-70
2023/01/09 06:52:04;;;;;;;1999.90;999.90;;;5.40;99.90;;;;;;5027035;28;21020;-70
2023/01/09 06:54:31;;;;;;;1999.90;999.90;;;5.30;99.90;;;;;;5027906;28;20447;-70
2023/01/09 06:56:58;;;;;;;1999.90;999.90;;;5.30;99.90;;;;;;5027491;28;20448;-69
2023/01/09 06:59:24;;;;;;;1999.90;999.90;;;5.30;99.90;;;;;;5026633;28;20461;-70
2023/01/09 07:01:53;;;;;;;1999.90;999.90;;;5.40;99.90;;;;;;5041719;28;20478;-70
2023/01/09 07:04:21;;;;;;;1999.90;999.90;;;5.60;99.90;;;;;;5047098;28;20448;-70
2023/01/09 07:06:48;;;;;;;1999.90;999.90;;;5.70;99.90;;;;;;5047526;28;20448;-70
2023/01/09 07:09:15;;;;;;;1999.90;999.90;;;5.90;99.90;;;;;;5046249;28;20492;-70
2023/01/09 07:11:42;;;;;;;1999.90;999.90;;;5.90;99.90;;;;;;5042496;28;20452;-69
2023/01/09 07:14:09;;;;;;;1999.90;999.90;;;5.90;99.90;;;;;;5023620;28;20860;-70
2023/01/09 07:16:36;;;;;;;1999.90;999.90;;;6.00;99.90;;;;;;5027255;28;21182;-70
2023/01/09 07:19:04;;;;;;;1999.90;999.90;;;5.90;99.90;;;;;;5026093;28;21042;-70
2023/01/09 07:21:31;;;;;;;1999.90;999.90;;;5.90;99.90;;;;;;5027350;28;20452;-70
2023/01/09 07:23:58;;;;;;;1999.90;999.90;;;5.90;99.90;;;;;;5027451;28;20819;-70
2023/01/09 07:26:24;;;;;;;1999.90;999.90;;;5.90;99.90;;;;;;5027332;28;20451;-70
2023/01/09 07:28:51;;;;;;;1999.90;999.90;;;5.90;99.90;;;;;;5026677;28;20579;-70
2023/01/09 07:31:18;;;;;;;1999.90;999.90;;;5.90;99.90;;;;;;5027210;28;20445;-70
2023/01/09 07:33:45;;;;;;;1999.90;999.90;;;5.90;99.90;;;;;;5028618;28;20449;-71
2023/01/09 07:36:13;;;;;;;1999.90;999.90;;;5.90;99.90;;;;;;5027539;28;20452;-70
2023/01/09 07:38:40;;;;;;;1999.90;999.90;;;6.00;99.90;;;;;;5026474;28;20465;-70
2023/01/09 07:41:07;;;;;;;1999.90;999.90;;;6.00;99.90;;;;;;5027469;28;20807;-70
2023/01/09 07:43:34;;;;;;;1999.90;999.90;;;6.10;99.90;;;;;;5021411;28;20449;-70
2023/01/09 07:46:00;;;;;;;1999.90;999.90;;;6.10;99.90;;;;;;5028075;28;20445;-70
2023/01/09 07:48:27;;;;;;;1999.90;999.90;;;6.10;99.90;;;;;;5027292;28;20870;-70
2023/01/09 07:50:54;;;;;;;1999.90;999.90;;;6.20;99.90;;;;;;5028985;28;20460;-70
2023/01/09 07:53:22;;;;;;;1999.90;999.90;;;6.30;99.90;;;;;;5027829;28;21138;-70
2023/01/09 07:55:49;;;;;;;1999.90;999.90;;;6.40;99.90;;;;;;5028001;28;20986;-70
2023/01/09 07:58:16;;;;;;;1999.90;999.90;;;6.50;99.90;;;;;;5028549;28;20460;-71
2023/01/09 08:00:43;;;;;;;1999.90;999.90;;;6.60;99.90;;;;;;5036007;28;20500;-71
2023/01/09 08:03:10;;;;;;;1999.90;999.90;;;6.60;99.90;;;;;;5044351;28;20883;-71
2023/01/09 08:05:36;;;;;;;1999.90;999.90;;;6.70;99.90;;;;;;5035058;28;20450;-69
2023/01/09 08:08:03;;;;;;;1999.90;999.90;;;6.80;99.90;;;;;;5035736;28;20481;-71
2023/01/09 08:10:32;;;;;;;1999.90;999.90;;;7.00;99.90;;;;;;5026556;28;20453;-73
2023/01/09 08:12:58;;;;;;;1999.90;999.90;;;7.10;99.90;;;;;;5024619;28;20452;-72
2023/01/09 08:15:25;;;;;;;1999.90;999.90;;;7.20;99.90;;;;;;5027356;28;20453;-70
2023/01/09 08:17:52;;;;;;;1999.90;999.90;;;7.30;99.90;;;;;;5026928;28;20468;-70
2023/01/09 08:20:19;;;;;;;1999.90;999.90;;;7.50;99.90;;;;;;5026333;28;20833;-71
2023/01/09 08:22:49;;;;;;;1999.90;999.90;;;7.80;99.90;;;;;;5029643;28;21221;-70
2023/01/09 08:25:17;;;;;;;1999.90;999.90;;;7.90;99.90;;;;;;5028287;28;20457;-71
2023/01/09 08:27:45;;;;;;;1999.90;999.90;;;8.00;99.90;;;;;;5031884;28;20882;-71
2023/01/09 08:30:13;;;;;;;1999.90;999.90;;;8.00;99.90;;;;;;5030688;28;20524;-71
2023/01/09 08:32:40;;;;;;;1999.90;999.90;;;8.00;99.90;;;;;;5041923;28;20954;-70
2023/01/09 08:35:08;;;;;;;1999.90;999.90;;;7.90;99.90;;;;;;5037348;28;20453;-70
2023/01/09 08:37:35;;;;;;;1999.90;999.90;;;7.70;99.90;;;;;;5019207;28;20536;-69
2023/01/09 08:40:02;;;;;;;1999.90;999.90;;;7.60;99.90;;;;;;5025319;28;20445;-69
2023/01/09 08:47:58;;;;;;;1999.90;999.90;;;7.60;99.90;;;;;;5027175;28;20487;-69
2023/01/09 08:50:25;;;;;;;1999.90;999.90;;;7.70;99.90;;;;;;5028294;28;20456;-70
2023/01/09 08:52:52;;;;;;;1999.90;999.90;;;7.70;99.90;;;;;;5029487;28;20445;-69
2023/01/09 08:55:19;;;;;;;1999.90;999.90;;;7.80;99.90;;;;;;5028054;28;20473;-69
2023/01/09 08:57:49;;;;;;;1999.90;999.90;;;7.80;99.90;;;;;;5027330;28;20436;-69
2023/01/09 09:00:18;;;;;;;1999.90;999.90;;;7.80;99.90;;;;;;5026237;28;20453;-69
2023/01/09 09:02:45;;;;;;;1999.90;999.90;;;7.90;99.90;;;;;;5026217;28;21187;-70
2023/01/09 09:05:12;;;;;;;1999.90;999.90;;;8.00;99.90;;;;;;5025739;28;20463;-69
2023/01/09 09:07:40;;;;;;;1999.90;999.90;;;8.10;99.90;;;;;;5025977;28;20445;-69
2023/01/09 09:10:07;;;;;;;1999.90;999.90;;;8.10;99.90;;;;;;5024754;28;20841;-70
2023/01/09 09:12:34;;;;;;;1999.90;999.90;;;8.10;99.90;;;;;;5026402;28;20860;-69
2023/01/09 09:15:15;;;;;;;1999.90;999.90;;;8.20;99.90;;;;;;5027422;28;20507;-70
2023/01/09 09:17:44;;;;;;;1999.90;999.90;;;8.20;99.90;;;;;;5025402;28;20448;-70
2023/01/09 09:20:12;;;;;;;1999.90;999.90;;;8.30;99.90;;;;;;5025311;28;20441;-69
2023/01/09 09:22:39;;;;;;;1999.90;999.90;;;8.30;99.90;;;;;;5027025;28;20477;-69
2023/01/09 09:25:06;;;;;;;1999.90;999.90;;;8.40;99.90;;;;;;5026995;28;20445;-70
2023/01/09 09:27:35;;;;;;;1999.90;999.90;;;8.40;99.90;;;;;;5025330;28;20445;-70
2023/01/09 09:30:02;;;;;;;1999.90;999.90;;;8.50;99.90;;;;;;5024374;28;20496;-69
2023/01/09 09:32:29;;;;;;;1999.90;999.90;;;8.40;99.90;;;;;;5026405;28;20505;-69
2023/01/09 09:34:57;;;;;;;1999.90;999.90;;;8.40;99.90;;;;;;5025492;28;20535;-68
2023/01/09 09:37:24;;;;;;;1999.90;999.90;;;8.40;99.90;;;;;;5026252;28;20447;-70
2023/01/09 09:39:51;;;;;;;1999.90;999.90;;;8.40;99.90;;;;;;5025561;28;20588;-70
2023/01/09 09:45:34;;;;;;;1999.90;999.90;;;8.40;99.90;;;;;;5025316;28;20424;-70
2023/01/09 09:48:11;;;;;;;1999.90;999.90;;;8.40;99.90;;;;;;5024903;28;20460;-70
2023/01/09 09:51:16;;;;;;;1999.90;999.90;;;8.40;99.90;;;;;;5025043;28;20437;-69
2023/01/09 09:53:51;;;;;;;1999.90;999.90;;;8.60;99.90;;;;;;4990520;28;20449;-69
2023/01/09 09:56:21;;;;;;;1999.90;999.90;;;8.70;99.90;;;;;;5026081;28;20462;-69
2023/01/09 09:58:51;;;;;;;1999.90;999.90;;;8.80;99.90;;;;;;5025573;28;20461;-69
2023/01/09 10:01:22;;;;;;;1999.90;999.90;;;8.90;99.90;;;;;;5025511;28;20453;-69
2023/01/09 10:03:52;;;;;;;1999.90;999.90;;;9.00;99.90;;;;;;5025018;28;20455;-69
2023/01/09 10:06:25;;;;;;;1999.90;999.90;;;9.00;99.90;;;;;;5024759;28;20447;-69
2023/01/09 10:09:01;;;;;;;1999.90;999.90;;;9.00;99.90;;;;;;5023943;28;20479;-68
2023/01/09 10:11:33;;;;;;;1999.90;999.90;;;9.10;99.90;;;;;;5024192;28;20440;-70
2023/01/09 10:14:06;;;;;;;1999.90;999.90;;;9.20;99.90;;;;;;5025046;28;20453;-70
2023/01/09 10:17:02;;;;;;;1999.90;999.90;;;9.20;99.90;;;;;;5025539;28;20448;-70
2023/01/09 10:19:44;;;;;;;1999.90;999.90;;;9.20;99.90;;;;;;5024078;28;20462;-68
2023/01/09 10:22:21;;;;;;;1999.90;999.90;;;9.30;99.90;;;;;;5025097;28;20964;-69
2023/01/09 10:25:06;;;;;;;1999.90;999.90;;;9.40;99.90;;;;;;5024227;28;20803;-70
2023/01/09 10:27:47;;;;;;;1999.90;999.90;;;9.40;99.90;;;;;;5023822;28;20491;-70
2023/01/09 10:30:31;;;;;;;1999.90;999.90;;;9.40;99.90;;;;;;5023855;28;20488;-70
2023/01/09 10:33:06;;;;;;;1999.90;999.90;;;9.40;99.90;;;;;;5023915;28;20494;-69
2023/01/09 10:36:03;;;;;;;1999.90;999.90;;;9.40;99.90;;;;;;5024484;28;20437;-69
2023/01/09 10:38:36;;;;;;;1999.90;999.90;;;9.50;99.90;;;;;;5023406;28;20654;-69
2023/01/09 10:41:10;;;;;;;1999.90;999.90;;;9.60;99.90;;;;;;5023911;28;20459;-68
2023/01/09 10:43:43;;;;;;;1999.90;999.90;;;9.70;99.90;;;;;;5023232;28;20446;-68
2023/01/09 10:46:16;;;;;;;1999.90;999.90;;;9.80;99.90;;;;;;5024272;28;20475;-69
2023/01/09 10:48:49;;;;;;;1999.90;999.90;;;9.90;99.90;;;;;;5026128;28;20481;-69
2023/01/09 10:51:20;;;;;;;1999.90;999.90;;;9.90;99.90;;;;;;5025992;28;20473;-70
2023/01/09 10:53:50;;;;;;;1999.90;999.90;;;9.90;99.90;;;;;;5023551;28;20449;-70
2023/01/09 10:56:22;;;;;;;1999.90;999.90;;;9.90;99.90;;;;;;5026560;28;20536;-70
2023/01/09 10:58:50;;;;;;;1999.90;999.90;;;9.80;99.90;;;;;;5021754;28;21164;-70
2023/01/09 11:01:24;;;;;;;1999.90;999.90;;;9.60;99.90;;;;;;5024716;28;21403;-70
2023/01/09 11:03:51;;;;;;;1999.90;999.90;;;9.50;99.90;;;;;;5024842;28;20445;-69
2023/01/09 11:06:21;;;;;;;1999.90;999.90;;;9.30;99.90;;;;;;5026405;28;20457;-70
2023/01/09 11:08:51;;;;;;;1999.90;999.90;;;9.20;99.90;;;;;;5023695;28;20994;-68
2023/01/09 11:11:32;;;;;;;1999.90;999.90;;;9.20;99.90;;;;;;5024777;28;20453;-70
2023/01/09 11:14:12;;;;;;;1999.90;999.90;;;9.30;99.90;;;;;;5025075;28;20449;-69
2023/01/09 11:16:51;;;;;;;1999.90;999.90;;;9.40;99.90;;;;;;5024792;28;20433;-69
2023/01/09 11:19:18;;;;;;;1999.90;999.90;;;9.50;99.90;;;;;;5023944;28;20477;-70
2023/01/09 11:21:45;;;;;;;1999.90;999.90;;;9.60;99.90;;;;;;5024706;28;20463;-70
2023/01/09 11:24:30;;;;;;;1999.90;999.90;;;9.70;99.90;;;;;;5024824;28;20453;-70
2023/01/09 11:27:23;;;;;;;1999.90;999.90;;;9.70;99.90;;;;;;5024743;28;20493;-70
2023/01/09 11:30:18;;;;;;;1999.90;999.90;;;9.70;99.90;;;;;;5008784;28;20481;-69
2023/01/09 11:32:48;;;;;;;1999.90;999.90;;;9.70;99.90;;;;;;5024075;28;20470;-70
2023/01/09 11:35:25;;;;;;;1999.90;999.90;;;9.80;99.90;;;;;;5023326;28;21037;-70
2023/01/09 11:38:02;;;;;;;1999.90;999.90;;;9.90;99.90;;;;;;5025186;28;20465;-70
2023/01/09 11:40:31;;;;;;;1999.90;999.90;;;9.90;99.90;;;;;;5024577;28;20448;-70
2023/01/09 11:43:14;;;;;;;1999.90;999.90;;;10.00;99.90;;;;;;5024778;28;20459;-70
2023/01/09 11:45:52;;;;;;;1999.90;999.90;;;10.10;99.90;;;;;;5025052;28;20514;-70
2023/01/09 11:48:28;;;;;;;1999.90;999.90;;;10.10;99.90;;;;;;5023473;28;21058;-70
2023/01/09 11:50:57;;;;;;;1999.90;999.90;;;10.20;99.90;;;;;;5024442;28;20496;-70
2023/01/09 11:53:25;;;;;;;1999.90;999.90;;;10.40;99.90;;;;;;5024529;28;20449;-70
2023/01/09 11:55:59;;;;;;;1999.90;999.90;;;10.40;99.90;;;;;;5022021;28;20456;-70
2023/01/09 11:58:33;;;;;;;1999.90;999.90;;;10.60;99.90;;;;;;5029461;28;20558;-70
2023/01/09 12:01:12;;;;;;;1999.90;999.90;;;10.70;99.90;;;;;;5030563;28;20464;-70
2023/01/09 12:03:58;;;;;;;1999.90;999.90;;;10.80;99.90;;;;;;5032389;28;20437;-69
2023/01/09 12:06:32;;;;;;;1999.90;999.90;;;10.60;99.90;;;;;;5030004;28;20449;-69
2023/01/09 12:09:02;;;;;;;1999.90;999.90;;;10.50;99.90;;;;;;5029435;28;21029;-69
2023/01/09 12:11:36;;;;;;;1999.90;999.90;;;10.40;99.90;;;;;;5031850;28;20444;-69
2023/01/09 12:14:23;;;;;;;1999.90;999.90;;;10.40;99.90;;;;;;5030738;28;20989;-69
2023/01/09 12:17:10;;;;;;;1999.90;999.90;;;10.40;99.90;;;;;;5029813;28;20547;-69
2023/01/09 12:19:55;;;;;;;1999.90;999.90;;;10.60;99.90;;;;;;5030360;28;20564;-69
2023/01/09 12:22:31;;;;;;;1999.90;999.90;;;10.40;99.90;;;;;;5030207;28;20440;-70
2023/01/09 12:25:17;;;;;;;1999.90;999.90;;;10.50;99.90;;;;;;5029839;28;20954;-70
2023/01/09 12:27:58;;;;;;;1999.90;999.90;;;10.50;99.90;;;;;;5031961;28;20458;-69
2023/01/09 12:30:41;;;;;;;1999.90;999.90;;;10.40;99.90;;;;;;5032087;28;20481;-70
2023/01/09 12:33:21;;;;;;;1999.90;999.90;;;10.20;99.90;;;;;;5029905;28;20444;-69
2023/01/09 12:36:05;;;;;;;1999.90;999.90;;;9.90;99.90;;;;;;5030376;28;20468;-70